sensor_id;sensor_type;location;lat;lon;timestamp;temperature;humidity
75442;DHT22;64019;48.312;14.226;2023-03-03T00:01:22;2.80;99.90
75442;DHT22;64019;48.312;14.226;2023-03-03T00:03:52;2.70;99.90
75442;DHT22;64019;48.312;14.226;2023-03-03T00:06:18;2.80;99.90
75442;DHT22;64019;48.312;14.226;2023-03-03T00:08:44;2.70;99.90
75442;DHT22;64019;48.312;14.226;2023-03-03T00:11:10;2.70;99.90
75442;DHT22;64019;48.312;14.226;2023-03-03T00:13:49;2.60;99.90
75442;DHT22;64019;48.312;14.226;2023-03-03T00:16:34;2.50;99.90
75442;DHT22;64019;48.312;14.226;2023-03-03T00:19:01;2.50;99.90
75442;DHT22;64019;48.312;14.226;2023-03-03T00:21:40;2.50;99.90
75442;DHT22;64019;48.312;14.226;2023-03-03T00:26:40;2.50;99.90
75442;DHT22;64019;48.312;14.226;2023-03-03T00:29:37;2.50;99.90
75442;DHT22;64019;48.312;14.226;2023-03-03T00:34:49;2.40;99.90
75442;DHT22;64019;48.312;14.226;2023-03-03T00:37:30;2.40;99.90
75442;DHT22;64019;48.312;14.226;2023-03-03T00:40:02;2.30;99.90
75442;DHT22;64019;48.312;14.226;2023-03-03T00:42:34;2.30;99.90
75442;DHT22;64019;48.312;14.226;2023-03-03T00:45:00;2.30;99.90
75442;DHT22;64019;48.312;14.226;2023-03-03T00:47:38;2.20;99.90
75442;DHT22;64019;48.312;14.226;2023-03-03T00:52:44;1.90;99.90
75442;DHT22;64019;48.312;14.226;2023-03-03T00:55:14;1.90;99.90
75442;DHT22;64019;48.312;14.226;2023-03-03T00:57:40;1.90;99.90
75442;DHT22;64019;48.312;14.226;2023-03-03T01:00:06;1.90;99.90
75442;DHT22;64019;48.312;14.226;2023-03-03T01:02:32;1.90;99.90
75442;DHT22;64019;48.312;14.226;2023-03-03T01:04:58;1.90;99.90
75442;DHT22;64019;48.312;14.226;2023-03-03T01:07:23;1.90;99.90
75442;DHT22;64019;48.312;14.226;2023-03-03T01:09:50;1.90;99.90
75442;DHT22;64019;48.312;14.226;2023-03-03T01:12:15;1.90;99.90
75442;DHT22;64019;48.312;14.226;2023-03-03T01:14:41;1.90;99.90
75442;DHT22;64019;48.312;14.226;2023-03-03T01:17:07;1.80;99.90
75442;DHT22;64019;48.312;14.226;2023-03-03T01:19:33;1.70;99.90
75442;DHT22;64019;48.312;14.226;2023-03-03T01:21:59;1.70;99.90
75442;DHT22;64019;48.312;14.226;2023-03-03T01:24:25;1.70;99.90
75442;DHT22;64019;48.312;14.226;2023-03-03T01:26:50;1.70;99.90
75442;DHT22;64019;48.312;14.226;2023-03-03T01:29:16;1.70;99.90
75442;DHT22;64019;48.312;14.226;2023-03-03T01:31:41;1.70;99.90
75442;DHT22;64019;48.312;14.226;2023-03-03T01:34:07;1.60;99.90
75442;DHT22;64019;48.312;14.226;2023-03-03T01:36:33;1.60;99.90
75442;DHT22;64019;48.312;14.226;2023-03-03T01:38:59;1.60;99.90
75442;DHT22;64019;48.312;14.226;2023-03-03T01:41:29;1.60;99.90
75442;DHT22;64019;48.312;14.226;2023-03-03T01:43:58;1.60;99.90
75442;DHT22;64019;48.312;14.226;2023-03-03T01:48:50;1.60;99.90
75442;DHT22;64019;48.312;14.226;2023-03-03T01:51:25;1.60;99.90
75442;DHT22;64019;48.312;14.226;2023-03-03T01:54:04;1.60;99.90
75442;DHT22;64019;48.312;14.226;2023-03-03T01:56:31;1.60;99.90
75442;DHT22;64019;48.312;14.226;2023-03-03T01:59:08;1.60;99.90
75442;DHT22;64019;48.312;14.226;2023-03-03T02:01:38;1.70;99.90
75442;DHT22;64019;48.312;14.226;2023-03-03T02:04:04;1.70;99.90
75442;DHT22;64019;48.312;14.226;2023-03-03T02:06:42;1.70;99.90
75442;DHT22;64019;48.312;14.226;2023-03-03T02:12:06;1.70;99.90
75442;DHT22;64019;48.312;14.226;2023-03-03T02:14:33;1.80;99.90
75442;DHT22;64019;48.312;14.226;2023-03-03T02:16:59;1.80;99.90
75442;DHT22;64019;48.312;14.226;2023-03-03T02:19:40;1.80;99.90
75442;DHT22;64019;48.312;14.226;2023-03-03T02:22:08;1.80;99.90
75442;DHT22;64019;48.312;14.226;2023-03-03T02:24:42;1.90;99.90
75442;DHT22;64019;48.312;14.226;2023-03-03T02:27:09;2.00;99.90
75442;DHT22;64019;48.312;14.226;2023-03-03T02:29:35;2.10;99.90
75442;DHT22;64019;48.312;14.226;2023-03-03T02:32:01;2.20;99.90
75442;DHT22;64019;48.312;14.226;2023-03-03T02:34:26;2.20;99.90
75442;DHT22;64019;48.312;14.226;2023-03-03T02:36:52;2.20;99.90
75442;DHT22;64019;48.312;14.226;2023-03-03T02:39:25;2.30;99.90
75442;DHT22;64019;48.312;14.226;2023-03-03T02:42:15;2.30;99.90
75442;DHT22;64019;48.312;14.226;2023-03-03T02:44:43;2.30;99.90
75442;DHT22;64019;48.312;14.226;2023-03-03T02:47:08;2.30;99.90
75442;DHT22;64019;48.312;14.226;2023-03-03T02:49:35;2.30;99.90
75442;DHT22;64019;48.312;14.226;2023-03-03T02:52:03;2.30;99.90
75442;DHT22;64019;48.312;14.226;2023-03-03T02:54:30;2.30;99.90
75442;DHT22;64019;48.312;14.226;2023-03-03T02:56:56;2.30;99.90
75442;DHT22;64019;48.312;14.226;2023-03-03T02:59:22;2.30;99.90
75442;DHT22;64019;48.312;14.226;2023-03-03T03:01:48;2.30;99.90
75442;DHT22;64019;48.312;14.226;2023-03-03T03:04:22;2.30;99.90
75442;DHT22;64019;48.312;14.226;2023-03-03T03:06:48;2.20;99.90
75442;DHT22;64019;48.312;14.226;2023-03-03T03:09:14;2.20;99.90
75442;DHT22;64019;48.312;14.226;2023-03-03T03:11:41;2.20;99.90
75442;DHT22;64019;48.312;14.226;2023-03-03T03:14:08;2.10;99.90
75442;DHT22;64019;48.312;14.226;2023-03-03T03:16:34;2.10;99.90
75442;DHT22;64019;48.312;14.226;2023-03-03T03:19:00;2.10;99.90
75442;DHT22;64019;48.312;14.226;2023-03-03T03:21:26;2.10;99.90
75442;DHT22;64019;48.312;14.226;2023-03-03T03:23:52;2.10;99.90
75442;DHT22;64019;48.312;14.226;2023-03-03T03:26:18;2.10;99.90
75442;DHT22;64019;48.312;14.226;2023-03-03T03:28:46;2.10;99.90
75442;DHT22;64019;48.312;14.226;2023-03-03T03:31:12;2.00;99.90
75442;DHT22;64019;48.312;14.226;2023-03-03T03:33:38;2.00;99.90
75442;DHT22;64019;48.312;14.226;2023-03-03T03:36:04;2.00;99.90
75442;DHT22;64019;48.312;14.226;2023-03-03T03:38:31;2.00;99.90
75442;DHT22;64019;48.312;14.226;2023-03-03T03:40:57;2.00;99.90
75442;DHT22;64019;48.312;14.226;2023-03-03T03:43:23;1.90;99.90
75442;DHT22;64019;48.312;14.226;2023-03-03T03:45:49;1.90;99.90
75442;DHT22;64019;48.312;14.226;2023-03-03T03:48:15;1.90;99.90
75442;DHT22;64019;48.312;14.226;2023-03-03T03:50:42;1.80;99.90
75442;DHT22;64019;48.312;14.226;2023-03-03T03:53:07;1.80;99.90
75442;DHT22;64019;48.312;14.226;2023-03-03T03:55:33;1.70;99.90
75442;DHT22;64019;48.312;14.226;2023-03-03T03:57:59;1.70;99.90
75442;DHT22;64019;48.312;14.226;2023-03-03T04:00:24;1.60;99.90
75442;DHT22;64019;48.312;14.226;2023-03-03T04:02:51;1.60;99.90
75442;DHT22;64019;48.312;14.226;2023-03-03T04:05:17;1.60;99.90
75442;DHT22;64019;48.312;14.226;2023-03-03T04:07:43;1.60;99.90
75442;DHT22;64019;48.312;14.226;2023-03-03T04:10:09;1.60;99.90
75442;DHT22;64019;48.312;14.226;2023-03-03T04:12:35;1.60;99.90
75442;DHT22;64019;48.312;14.226;2023-03-03T04:15:05;1.50;99.90
75442;DHT22;64019;48.312;14.226;2023-03-03T04:17:31;1.50;99.90
75442;DHT22;64019;48.312;14.226;2023-03-03T04:19:56;1.50;99.90
75442;DHT22;64019;48.312;14.226;2023-03-03T04:22:22;1.50;99.90
75442;DHT22;64019;48.312;14.226;2023-03-03T04:24:48;1.50;99.90
75442;DHT22;64019;48.312;14.226;2023-03-03T04:27:14;1.40;99.90
75442;DHT22;64019;48.312;14.226;2023-03-03T04:29:40;1.40;99.90
75442;DHT22;64019;48.312;14.226;2023-03-03T04:32:06;1.40;99.90
75442;DHT22;64019;48.312;14.226;2023-03-03T04:34:32;1.40;99.90
75442;DHT22;64019;48.312;14.226;2023-03-03T04:36:58;1.50;99.90
75442;DHT22;64019;48.312;14.226;2023-03-03T04:39:23;1.50;99.90
75442;DHT22;64019;48.312;14.226;2023-03-03T04:41:49;1.50;99.90
75442;DHT22;64019;48.312;14.226;2023-03-03T04:44:15;1.60;99.90
75442;DHT22;64019;48.312;14.226;2023-03-03T04:46:40;1.70;99.90
75442;DHT22;64019;48.312;14.226;2023-03-03T04:49:06;1.70;99.90
75442;DHT22;64019;48.312;14.226;2023-03-03T04:51:33;1.70;99.90
75442;DHT22;64019;48.312;14.226;2023-03-03T04:53:59;1.70;99.90
75442;DHT22;64019;48.312;14.226;2023-03-03T04:56:25;1.70;99.90
75442;DHT22;64019;48.312;14.226;2023-03-03T04:58:51;1.70;99.90
75442;DHT22;64019;48.312;14.226;2023-03-03T05:01:17;1.70;99.90
75442;DHT22;64019;48.312;14.226;2023-03-03T05:03:44;1.70;99.90
75442;DHT22;64019;48.312;14.226;2023-03-03T05:06:10;1.70;99.90
75442;DHT22;64019;48.312;14.226;2023-03-03T05:08:35;1.80;99.90
75442;DHT22;64019;48.312;14.226;2023-03-03T05:11:02;1.70;99.90
75442;DHT22;64019;48.312;14.226;2023-03-03T05:13:28;1.60;99.90
75442;DHT22;64019;48.312;14.226;2023-03-03T05:15:55;1.60;99.90
75442;DHT22;64019;48.312;14.226;2023-03-03T05:18:23;1.50;99.90
75442;DHT22;64019;48.312;14.226;2023-03-03T05:20:50;1.50;99.90
75442;DHT22;64019;48.312;14.226;2023-03-03T05:23:16;1.50;99.90
75442;DHT22;64019;48.312;14.226;2023-03-03T05:25:42;1.50;99.90
75442;DHT22;64019;48.312;14.226;2023-03-03T05:28:09;1.50;99.90
75442;DHT22;64019;48.312;14.226;2023-03-03T05:30:36;1.50;99.90
75442;DHT22;64019;48.312;14.226;2023-03-03T05:33:03;1.50;99.90
75442;DHT22;64019;48.312;14.226;2023-03-03T05:35:29;1.50;99.90
75442;DHT22;64019;48.312;14.226;2023-03-03T05:37:55;1.40;99.90
75442;DHT22;64019;48.312;14.226;2023-03-03T05:40:26;1.30;99.90
75442;DHT22;64019;48.312;14.226;2023-03-03T05:42:52;1.20;99.90
75442;DHT22;64019;48.312;14.226;2023-03-03T05:45:18;1.20;99.90
75442;DHT22;64019;48.312;14.226;2023-03-03T05:47:49;1.20;99.90
75442;DHT22;64019;48.312;14.226;2023-03-03T05:50:15;1.20;99.90
75442;DHT22;64019;48.312;14.226;2023-03-03T05:52:41;1.20;99.90
75442;DHT22;64019;48.312;14.226;2023-03-03T05:55:08;1.20;99.90
75442;DHT22;64019;48.312;14.226;2023-03-03T05:57:33;1.20;99.90
75442;DHT22;64019;48.312;14.226;2023-03-03T06:00:04;1.20;99.90
75442;DHT22;64019;48.312;14.226;2023-03-03T06:02:30;1.10;99.90
75442;DHT22;64019;48.312;14.226;2023-03-03T06:04:56;1.10;99.90
75442;DHT22;64019;48.312;14.226;2023-03-03T06:07:21;1.10;99.90
75442;DHT22;64019;48.312;14.226;2023-03-03T06:09:47;1.10;99.90
75442;DHT22;64019;48.312;14.226;2023-03-03T06:12:13;1.10;99.90
75442;DHT22;64019;48.312;14.226;2023-03-03T06:14:38;1.10;99.90
75442;DHT22;64019;48.312;14.226;2023-03-03T06:17:04;1.20;99.90
75442;DHT22;64019;48.312;14.226;2023-03-03T06:19:30;1.20;99.90
75442;DHT22;64019;48.312;14.226;2023-03-03T06:21:56;1.30;99.90
75442;DHT22;64019;48.312;14.226;2023-03-03T06:24:22;1.30;99.90
75442;DHT22;64019;48.312;14.226;2023-03-03T06:26:50;1.30;99.90
75442;DHT22;64019;48.312;14.226;2023-03-03T06:29:16;1.30;99.90
75442;DHT22;64019;48.312;14.226;2023-03-03T06:31:42;1.40;99.90
75442;DHT22;64019;48.312;14.226;2023-03-03T06:34:08;1.40;99.90
75442;DHT22;64019;48.312;14.226;2023-03-03T06:36:33;1.40;99.90
75442;DHT22;64019;48.312;14.226;2023-03-03T06:38:59;1.40;99.90
75442;DHT22;64019;48.312;14.226;2023-03-03T06:41:25;1.50;99.90
75442;DHT22;64019;48.312;14.226;2023-03-03T06:43:51;1.50;99.90
75442;DHT22;64019;48.312;14.226;2023-03-03T06:46:16;1.50;99.90
75442;DHT22;64019;48.312;14.226;2023-03-03T06:48:42;1.60;99.90
75442;DHT22;64019;48.312;14.226;2023-03-03T06:51:30;1.70;99.90
75442;DHT22;64019;48.312;14.226;2023-03-03T06:53:57;1.80;99.90
75442;DHT22;64019;48.312;14.226;2023-03-03T06:56:25;1.90;99.90
75442;DHT22;64019;48.312;14.226;2023-03-03T06:58:59;2.00;99.90
75442;DHT22;64019;48.312;14.226;2023-03-03T07:01:25;2.10;99.90
75442;DHT22;64019;48.312;14.226;2023-03-03T07:03:51;2.20;99.90
75442;DHT22;64019;48.312;14.226;2023-03-03T07:06:23;2.30;99.90
75442;DHT22;64019;48.312;14.226;2023-03-03T07:08:50;2.40;99.90
75442;DHT22;64019;48.312;14.226;2023-03-03T07:11:22;2.50;99.90
75442;DHT22;64019;48.312;14.226;2023-03-03T07:13:54;2.60;99.90
75442;DHT22;64019;48.312;14.226;2023-03-03T07:16:27;2.60;99.90
75442;DHT22;64019;48.312;14.226;2023-03-03T07:18:54;2.70;99.90
75442;DHT22;64019;48.312;14.226;2023-03-03T07:21:30;2.80;99.90
75442;DHT22;64019;48.312;14.226;2023-03-03T07:23:59;2.90;99.90
75442;DHT22;64019;48.312;14.226;2023-03-03T07:26:28;3.00;99.90
75442;DHT22;64019;48.312;14.226;2023-03-03T07:31:46;3.10;99.90
75442;DHT22;64019;48.312;14.226;2023-03-03T07:34:26;3.20;99.90
75442;DHT22;64019;48.312;14.226;2023-03-03T07:37:09;3.20;99.90
75442;DHT22;64019;48.312;14.226;2023-03-03T07:39:38;3.20;99.90
75442;DHT22;64019;48.312;14.226;2023-03-03T07:42:26;3.30;99.90
75442;DHT22;64019;48.312;14.226;2023-03-03T07:44:55;3.30;99.90
75442;DHT22;64019;48.312;14.226;2023-03-03T07:47:30;3.40;99.90
75442;DHT22;64019;48.312;14.226;2023-03-03T07:50:07;3.30;99.90
75442;DHT22;64019;48.312;14.226;2023-03-03T07:52:42;3.20;99.90
75442;DHT22;64019;48.312;14.226;2023-03-03T07:55:34;3.30;99.90
75442;DHT22;64019;48.312;14.226;2023-03-03T07:58:26;3.30;99.90
75442;DHT22;64019;48.312;14.226;2023-03-03T08:01:30;3.40;99.90
75442;DHT22;64019;48.312;14.226;2023-03-03T08:03:59;3.40;99.90
75442;DHT22;64019;48.312;14.226;2023-03-03T08:14:30;4.00;99.90
75442;DHT22;64019;48.312;14.226;2023-03-03T08:16:56;4.10;99.90
75442;DHT22;64019;48.312;14.226;2023-03-03T08:19:23;4.20;99.90
75442;DHT22;64019;48.312;14.226;2023-03-03T08:21:48;4.20;99.90
75442;DHT22;64019;48.312;14.226;2023-03-03T08:24:14;4.10;99.90
75442;DHT22;64019;48.312;14.226;2023-03-03T08:26:40;4.10;99.90
75442;DHT22;64019;48.312;14.226;2023-03-03T08:29:05;4.20;99.90
75442;DHT22;64019;48.312;14.226;2023-03-03T08:31:31;4.30;99.90
75442;DHT22;64019;48.312;14.226;2023-03-03T08:33:57;4.40;99.90
75442;DHT22;64019;48.312;14.226;2023-03-03T08:36:23;4.50;99.90
75442;DHT22;64019;48.312;14.226;2023-03-03T08:38:49;4.60;99.90
75442;DHT22;64019;48.312;14.226;2023-03-03T08:41:14;4.60;99.90
75442;DHT22;64019;48.312;14.226;2023-03-03T08:43:40;4.60;99.90
75442;DHT22;64019;48.312;14.226;2023-03-03T08:46:06;4.90;99.90
75442;DHT22;64019;48.312;14.226;2023-03-03T08:48:34;5.00;99.90
75442;DHT22;64019;48.312;14.226;2023-03-03T08:51:00;5.00;99.90
75442;DHT22;64019;48.312;14.226;2023-03-03T08:53:26;5.00;99.90
75442;DHT22;64019;48.312;14.226;2023-03-03T08:55:52;5.10;99.90
75442;DHT22;64019;48.312;14.226;2023-03-03T08:58:19;5.10;99.90
75442;DHT22;64019;48.312;14.226;2023-03-03T09:00:45;5.10;99.90
75442;DHT22;64019;48.312;14.226;2023-03-03T09:03:10;5.20;99.90
75442;DHT22;64019;48.312;14.226;2023-03-03T09:05:37;5.20;99.90
75442;DHT22;64019;48.312;14.226;2023-03-03T09:08:05;5.30;99.90
75442;DHT22;64019;48.312;14.226;2023-03-03T09:10:32;5.40;99.90
75442;DHT22;64019;48.312;14.226;2023-03-03T09:13:03;5.40;99.90
75442;DHT22;64019;48.312;14.226;2023-03-03T09:15:33;5.40;99.90
75442;DHT22;64019;48.312;14.226;2023-03-03T09:18:25;5.50;99.90
75442;DHT22;64019;48.312;14.226;2023-03-03T09:20:55;5.60;99.90
75442;DHT22;64019;48.312;14.226;2023-03-03T09:23:36;5.60;99.90
75442;DHT22;64019;48.312;14.226;2023-03-03T09:26:26;5.70;99.90
75442;DHT22;64019;48.312;14.226;2023-03-03T09:31:44;6.00;99.90
75442;DHT22;64019;48.312;14.226;2023-03-03T09:34:23;6.00;99.90
75442;DHT22;64019;48.312;14.226;2023-03-03T09:36:51;6.00;99.90
75442;DHT22;64019;48.312;14.226;2023-03-03T09:42:15;6.20;99.90
75442;DHT22;64019;48.312;14.226;2023-03-03T09:50:44;6.30;99.90
75442;DHT22;64019;48.312;14.226;2023-03-03T10:06:37;6.80;99.90
75442;DHT22;64019;48.312;14.226;2023-03-03T10:09:31;6.80;99.90
75442;DHT22;64019;48.312;14.226;2023-03-03T10:17:27;7.00;99.90
75442;DHT22;64019;48.312;14.226;2023-03-03T10:24:00;7.10;99.90
75442;DHT22;64019;48.312;14.226;2023-03-03T10:41:04;7.50;99.90
75442;DHT22;64019;48.312;14.226;2023-03-03T10:50:01;7.70;99.90
75442;DHT22;64019;48.312;14.226;2023-03-03T10:55:45;7.70;99.90
75442;DHT22;64019;48.312;14.226;2023-03-03T11:01:12;7.80;99.90
75442;DHT22;64019;48.312;14.226;2023-03-03T11:04:10;7.90;99.90
75442;DHT22;64019;48.312;14.226;2023-03-03T11:09:33;8.00;99.90
75442;DHT22;64019;48.312;14.226;2023-03-03T11:18:07;8.20;99.90
75442;DHT22;64019;48.312;14.226;2023-03-03T11:20:52;8.20;99.90
75442;DHT22;64019;48.312;14.226;2023-03-03T11:34:46;8.60;99.90
75442;DHT22;64019;48.312;14.226;2023-03-03T11:37:16;8.60;99.90
75442;DHT22;64019;48.312;14.226;2023-03-03T11:39:45;8.70;99.90
75442;DHT22;64019;48.312;14.226;2023-03-03T11:45:11;8.60;99.90
75442;DHT22;64019;48.312;14.226;2023-03-03T11:48:11;8.60;99.90
75442;DHT22;64019;48.312;14.226;2023-03-03T11:51:07;8.60;99.90
75442;DHT22;64019;48.312;14.226;2023-03-03T11:53:45;8.50;99.90
75442;DHT22;64019;48.312;14.226;2023-03-03T11:56:22;8.70;99.90
75442;DHT22;64019;48.312;14.226;2023-03-03T11:58:59;8.70;99.90
75442;DHT22;64019;48.312;14.226;2023-03-03T12:01:29;8.70;99.90
75442;DHT22;64019;48.312;14.226;2023-03-03T12:09:33;8.80;99.90
75442;DHT22;64019;48.312;14.226;2023-03-03T12:12:19;8.80;99.90
75442;DHT22;64019;48.312;14.226;2023-03-03T12:15:05;8.80;99.90
75442;DHT22;64019;48.312;14.226;2023-03-03T12:18:03;8.80;99.90
75442;DHT22;64019;48.312;14.226;2023-03-03T12:29:37;8.90;99.90
75442;DHT22;64019;48.312;14.226;2023-03-03T12:32:37;9.00;99.90
75442;DHT22;64019;48.312;14.226;2023-03-03T12:40:25;9.30;99.90
75442;DHT22;64019;48.312;14.226;2023-03-03T12:48:44;9.40;99.90
75442;DHT22;64019;48.312;14.226;2023-03-03T13:07:38;9.50;99.90
75442;DHT22;64019;48.312;14.226;2023-03-03T13:12:58;9.60;99.90
75442;DHT22;64019;48.312;14.226;2023-03-03T13:15:40;9.70;99.90
75442;DHT22;64019;48.312;14.226;2023-03-03T13:18:45;9.70;99.90
75442;DHT22;64019;48.312;14.226;2023-03-03T13:21:25;9.70;99.90
75442;DHT22;64019;48.312;14.226;2023-03-03T13:26:36;9.70;99.90
75442;DHT22;64019;48.312;14.226;2023-03-03T13:29:14;9.80;99.90
75442;DHT22;64019;48.312;14.226;2023-03-03T13:31:51;9.90;99.90
75442;DHT22;64019;48.312;14.226;2023-03-03T13:39:37;10.00;99.90
75442;DHT22;64019;48.312;14.226;2023-03-03T13:42:29;10.00;99.90
75442;DHT22;64019;48.312;14.226;2023-03-03T13:44:56;10.00;99.90
75442;DHT22;64019;48.312;14.226;2023-03-03T13:50:36;10.10;99.90
75442;DHT22;64019;48.312;14.226;2023-03-03T13:53:45;10.10;99.90
75442;DHT22;64019;48.312;14.226;2023-03-03T13:59:44;10.10;99.90
75442;DHT22;64019;48.312;14.226;2023-03-03T14:02:37;10.10;99.90
75442;DHT22;64019;48.312;14.226;2023-03-03T14:05:14;10.20;99.90
75442;DHT22;64019;48.312;14.226;2023-03-03T14:13:43;10.30;99.90
75442;DHT22;64019;48.312;14.226;2023-03-03T14:16:33;10.30;99.90
75442;DHT22;64019;48.312;14.226;2023-03-03T14:24:59;10.30;99.90
75442;DHT22;64019;48.312;14.226;2023-03-03T14:27:32;10.20;99.90
75442;DHT22;64019;48.312;14.226;2023-03-03T14:29:58;10.30;99.90
75442;DHT22;64019;48.312;14.226;2023-03-03T14:32:26;10.20;99.90
75442;DHT22;64019;48.312;14.226;2023-03-03T14:34:58;10.20;99.90
75442;DHT22;64019;48.312;14.226;2023-03-03T14:37:48;10.20;99.90
75442;DHT22;64019;48.312;14.226;2023-03-03T14:40:20;10.30;99.90
75442;DHT22;64019;48.312;14.226;2023-03-03T14:45:33;10.30;99.90
75442;DHT22;64019;48.312;14.226;2023-03-03T14:48:22;10.30;99.90
75442;DHT22;64019;48.312;14.226;2023-03-03T14:53:20;10.40;99.90
75442;DHT22;64019;48.312;14.226;2023-03-03T14:55:51;10.40;99.90
75442;DHT22;64019;48.312;14.226;2023-03-03T14:58:34;10.40;99.90
75442;DHT22;64019;48.312;14.226;2023-03-03T15:03:34;10.30;99.90
75442;DHT22;64019;48.312;14.226;2023-03-03T15:06:12;10.40;99.90
75442;DHT22;64019;48.312;14.226;2023-03-03T15:08:51;10.40;99.90
75442;DHT22;64019;48.312;14.226;2023-03-03T15:11:18;10.50;99.90
75442;DHT22;64019;48.312;14.226;2023-03-03T15:13:47;10.50;99.90
75442;DHT22;64019;48.312;14.226;2023-03-03T15:16:25;10.60;99.90
75442;DHT22;64019;48.312;14.226;2023-03-03T15:19:35;10.50;99.90
75442;DHT22;64019;48.312;14.226;2023-03-03T15:22:08;10.50;99.90
75442;DHT22;64019;48.312;14.226;2023-03-03T15:24:51;10.60;99.90
75442;DHT22;64019;48.312;14.226;2023-03-03T15:27:27;10.70;99.90
75442;DHT22;64019;48.312;14.226;2023-03-03T15:32:50;10.60;99.90
75442;DHT22;64019;48.312;14.226;2023-03-03T15:35:51;10.60;99.90
75442;DHT22;64019;48.312;14.226;2023-03-03T15:42:02;10.60;99.90
75442;DHT22;64019;48.312;14.226;2023-03-03T15:44:25;10.60;99.90
75442;DHT22;64019;48.312;14.226;2023-03-03T16:03:26;10.20;99.90
75442;DHT22;64019;48.312;14.226;2023-03-03T16:05:57;10.20;99.90
75442;DHT22;64019;48.312;14.226;2023-03-03T16:08:39;10.10;99.90
75442;DHT22;64019;48.312;14.226;2023-03-03T16:16:49;9.90;99.90
75442;DHT22;64019;48.312;14.226;2023-03-03T16:30:25;9.70;99.90
75442;DHT22;64019;48.312;14.226;2023-03-03T16:33:08;9.60;99.90
75442;DHT22;64019;48.312;14.226;2023-03-03T16:35:41;9.60;99.90
75442;DHT22;64019;48.312;14.226;2023-03-03T16:38:17;9.50;99.90
75442;DHT22;64019;48.312;14.226;2023-03-03T16:45:50;9.40;99.90
75442;DHT22;64019;48.312;14.226;2023-03-03T16:50:56;9.30;99.90
75442;DHT22;64019;48.312;14.226;2023-03-03T16:53:46;9.20;99.90
75442;DHT22;64019;48.312;14.226;2023-03-03T16:56:13;9.10;99.90
75442;DHT22;64019;48.312;14.226;2023-03-03T17:10:02;8.80;99.90
75442;DHT22;64019;48.312;14.226;2023-03-03T17:18:07;8.60;99.90
75442;DHT22;64019;48.312;14.226;2023-03-03T17:20:57;8.50;99.90
75442;DHT22;64019;48.312;14.226;2023-03-03T17:36:43;8.10;99.90
75442;DHT22;64019;48.312;14.226;2023-03-03T17:39:33;8.10;99.90
75442;DHT22;64019;48.312;14.226;2023-03-03T17:42:32;8.10;99.90
75442;DHT22;64019;48.312;14.226;2023-03-03T17:45:08;8.00;99.90
75442;DHT22;64019;48.312;14.226;2023-03-03T17:48:48;7.90;99.90
75442;DHT22;64019;48.312;14.226;2023-03-03T17:54:23;7.80;99.90
75442;DHT22;64019;48.312;14.226;2023-03-03T17:57:28;7.70;99.90
75442;DHT22;64019;48.312;14.226;2023-03-03T18:02:47;7.60;99.90
75442;DHT22;64019;48.312;14.226;2023-03-03T18:05:32;7.60;99.90
75442;DHT22;64019;48.312;14.226;2023-03-03T18:19:11;7.20;99.90
75442;DHT22;64019;48.312;14.226;2023-03-03T18:33:01;6.20;99.90
75442;DHT22;64019;48.312;14.226;2023-03-03T18:41:01;6.00;99.90
75442;DHT22;64019;48.312;14.226;2023-03-03T18:48:56;5.80;99.90
75442;DHT22;64019;48.312;14.226;2023-03-03T19:02:50;5.50;99.90
75442;DHT22;64019;48.312;14.226;2023-03-03T19:12:55;5.30;99.90
75442;DHT22;64019;48.312;14.226;2023-03-03T19:20:47;5.20;99.90
75442;DHT22;64019;48.312;14.226;2023-03-03T19:23:17;5.20;99.90
75442;DHT22;64019;48.312;14.226;2023-03-03T19:25:43;5.20;99.90
75442;DHT22;64019;48.312;14.226;2023-03-03T19:36:24;4.90;99.90
75442;DHT22;64019;48.312;14.226;2023-03-03T19:39:19;4.90;99.90
75442;DHT22;64019;48.312;14.226;2023-03-03T19:47:03;4.70;99.90
75442;DHT22;64019;48.312;14.226;2023-03-03T19:49:56;4.70;99.90
75442;DHT22;64019;48.312;14.226;2023-03-03T19:52:36;4.70;99.90
75442;DHT22;64019;48.312;14.226;2023-03-03T19:55:35;4.70;99.90
75442;DHT22;64019;48.312;14.226;2023-03-03T19:58:42;4.70;99.90
75442;DHT22;64019;48.312;14.226;2023-03-03T20:07:07;4.40;99.90
75442;DHT22;64019;48.312;14.226;2023-03-03T20:14:46;4.40;99.90
75442;DHT22;64019;48.312;14.226;2023-03-03T20:31:24;4.10;99.90
75442;DHT22;64019;48.312;14.226;2023-03-03T20:50:17;3.90;99.90
75442;DHT22;64019;48.312;14.226;2023-03-03T21:03:37;3.80;99.90
75442;DHT22;64019;48.312;14.226;2023-03-03T21:06:08;3.80;99.90
75442;DHT22;64019;48.312;14.226;2023-03-03T21:08:56;3.70;99.90
75442;DHT22;64019;48.312;14.226;2023-03-03T21:11:23;3.70;99.90
75442;DHT22;64019;48.312;14.226;2023-03-03T21:13:52;3.70;99.90
75442;DHT22;64019;48.312;14.226;2023-03-03T21:19:03;3.70;99.90
75442;DHT22;64019;48.312;14.226;2023-03-03T21:21:35;3.60;99.90
75442;DHT22;64019;48.312;14.226;2023-03-03T21:24:01;3.50;99.90
75442;DHT22;64019;48.312;14.226;2023-03-03T21:26:50;3.50;99.90
75442;DHT22;64019;48.312;14.226;2023-03-03T21:29:30;3.40;99.90
75442;DHT22;64019;48.312;14.226;2023-03-03T21:32:07;3.40;99.90
75442;DHT22;64019;48.312;14.226;2023-03-03T21:34:38;3.40;99.90
75442;DHT22;64019;48.312;14.226;2023-03-03T21:37:09;3.30;99.90
75442;DHT22;64019;48.312;14.226;2023-03-03T21:39:42;3.30;99.90
75442;DHT22;64019;48.312;14.226;2023-03-03T21:42:38;3.20;99.90
75442;DHT22;64019;48.312;14.226;2023-03-03T21:45:14;3.30;99.90
75442;DHT22;64019;48.312;14.226;2023-03-03T21:47:40;3.20;99.90
75442;DHT22;64019;48.312;14.226;2023-03-03T21:50:07;3.20;99.90
75442;DHT22;64019;48.312;14.226;2023-03-03T21:52:32;3.20;99.90
75442;DHT22;64019;48.312;14.226;2023-03-03T21:54:58;3.20;99.90
75442;DHT22;64019;48.312;14.226;2023-03-03T21:57:24;3.20;99.90
75442;DHT22;64019;48.312;14.226;2023-03-03T21:59:50;3.20;99.90
75442;DHT22;64019;48.312;14.226;2023-03-03T22:02:16;3.10;99.90
75442;DHT22;64019;48.312;14.226;2023-03-03T22:04:41;3.10;99.90
75442;DHT22;64019;48.312;14.226;2023-03-03T22:07:08;3.10;99.90
75442;DHT22;64019;48.312;14.226;2023-03-03T22:09:34;3.10;99.90
75442;DHT22;64019;48.312;14.226;2023-03-03T22:12:00;3.10;99.90
75442;DHT22;64019;48.312;14.226;2023-03-03T22:14:25;3.00;99.90
75442;DHT22;64019;48.312;14.226;2023-03-03T22:16:51;3.00;99.90
75442;DHT22;64019;48.312;14.226;2023-03-03T22:19:16;2.90;99.90
75442;DHT22;64019;48.312;14.226;2023-03-03T22:21:42;2.90;99.90
75442;DHT22;64019;48.312;14.226;2023-03-03T22:24:08;2.90;99.90
75442;DHT22;64019;48.312;14.226;2023-03-03T22:26:34;2.90;99.90
75442;DHT22;64019;48.312;14.226;2023-03-03T22:29:00;2.90;99.90
75442;DHT22;64019;48.312;14.226;2023-03-03T22:31:26;2.80;99.90
75442;DHT22;64019;48.312;14.226;2023-03-03T22:33:52;2.70;99.90
75442;DHT22;64019;48.312;14.226;2023-03-03T22:36:17;2.70;99.90